Time;durP1;ratioP1;P1;durP2;ratioP2;P2;SDS_P1;SDS_P2;PMS_P1;PMS_P2;Temp;Humidity;BMP_temperature;BMP_pressure;BME280_temperature;BME280_humidity;BME280_pressure;Samples;Min_cycle;Max_cycle;Signal;HPM_P1;HPM_P2
2021/06/03 00:00:57;;;;;;;35.27;24.20;;;;;;;;;;5055657;28;20176;-88
2021/06/03 00:03:22;;;;;;;38.07;25.03;;;;;;;;;;5054479;28;20179;-87
2021/06/03 00:05:49;;;;;;;38.97;25.67;;;;;;;;;;5055526;28;20634;-87
2021/06/03 00:08:16;;;;;;;42.37;26.33;;;;;;;;;;5055047;28;20179;-87
2021/06/03 00:10:45;;;;;;;41.63;27.33;;;;;;;;;;5055543;28;20168;-87
2021/06/03 00:13:10;;;;;;;39.70;25.20;;;;;;;;;;5055045;28;20200;-87
2021/06/03 00:15:35;;;;;;;34.40;23.47;;;;;;;;;;5053943;28;20179;-86
2021/06/03 00:18:02;;;;;;;38.13;23.50;;;;;;;;;;5055058;28;20184;-85
2021/06/03 00:20:29;;;;;;;41.07;25.40;;;;;;;;;;5053837;28;20184;-85
2021/06/03 00:22:54;;;;;;;32.70;23.53;;;;;;;;;;5055277;28;20168;-86
2021/06/03 00:25:20;;;;;;;34.77;23.57;;;;;;;;;;5054603;28;20182;-85
2021/06/03 00:27:46;;;;;;;38.37;23.87;;;;;;;;;;5054524;28;20206;-86
2021/06/03 00:30:11;;;;;;;36.47;23.77;;;;;;;;;;5054975;28;20527;-86
2021/06/03 00:32:36;;;;;;;29.57;21.53;;;;;;;;;;5054985;28;20195;-85
2021/06/03 00:35:02;;;;;;;31.93;22.40;;;;;;;;;;5055579;28;20183;-86
2021/06/03 00:37:28;;;;;;;32.37;21.27;;;;;;;;;;5054763;28;20603;-87
2021/06/03 00:39:53;;;;;;;35.53;21.93;;;;;;;;;;5054754;28;20190;-87
2021/06/03 00:42:18;;;;;;;31.97;22.30;;;;;;;;;;5054738;28;20274;-87
2021/06/03 00:44:44;;;;;;;30.97;22.37;;;;;;;;;;5055114;28;20346;-86
2021/06/03 00:47:10;;;;;;;41.50;24.90;;;;;;;;;;5054662;28;20228;-87
2021/06/03 00:49:35;;;;;;;44.50;27.83;;;;;;;;;;5036940;28;20614;-86
2021/06/03 00:52:01;;;;;;;42.17;27.03;;;;;;;;;;5054932;28;20203;-88
2021/06/03 00:54:26;;;;;;;44.73;26.37;;;;;;;;;;5054936;28;20203;-87
2021/06/03 00:56:51;;;;;;;42.23;27.70;;;;;;;;;;5060055;28;20175;-88
2021/06/03 00:59:17;;;;;;;39.30;26.97;;;;;;;;;;5061574;28;20251;-87
2021/06/03 01:01:42;;;;;;;47.90;28.63;;;;;;;;;;5061859;28;20205;-87
2021/06/03 01:04:08;;;;;;;46.77;27.37;;;;;;;;;;5061547;28;20164;-88
2021/06/03 01:06:33;;;;;;;40.03;25.60;;;;;;;;;;5060895;28;20199;-88
2021/06/03 01:09:07;;;;;;;35.00;23.97;;;;;;;;;;5058774;28;20209;-87
2021/06/03 01:11:35;;;;;;;38.67;23.23;;;;;;;;;;5054169;28;20257;-88
2021/06/03 01:14:03;;;;;;;38.80;23.90;;;;;;;;;;5054433;28;20172;-88
2021/06/03 01:16:30;;;;;;;40.10;24.93;;;;;;;;;;5053907;28;20268;-87
2021/06/03 01:18:56;;;;;;;40.83;25.23;;;;;;;;;;5054145;28;20629;-87
2021/06/03 01:21:26;;;;;;;38.77;24.67;;;;;;;;;;5054152;28;20179;-87
2021/06/03 01:24:10;;;;;;;34.07;22.80;;;;;;;;;;5054452;28;20168;-88
2021/06/03 01:26:36;;;;;;;36.80;23.20;;;;;;;;;;5054465;28;20175;-89
2021/06/03 01:29:02;;;;;;;32.80;23.00;;;;;;;;;;5052920;28;20214;-89
2021/06/03 01:31:27;;;;;;;31.13;22.00;;;;;;;;;;5054296;28;20196;-90
2021/06/03 01:33:53;;;;;;;35.07;22.80;;;;;;;;;;5052882;28;20222;-89
2021/06/03 01:36:18;;;;;;;34.53;22.50;;;;;;;;;;5053394;28;20605;-89
2021/06/03 01:38:44;;;;;;;31.60;22.07;;;;;;;;;;5052407;28;20176;-87
2021/06/03 01:41:11;;;;;;;33.43;20.93;;;;;;;;;;5054502;28;20191;-88
2021/06/03 01:43:39;;;;;;;33.53;22.23;;;;;;;;;;5053994;28;20172;-85
2021/06/03 01:46:04;;;;;;;30.20;21.77;;;;;;;;;;5052594;28;20644;-85
2021/06/03 01:48:30;;;;;;;29.53;20.77;;;;;;;;;;5054162;28;20306;-86
2021/06/03 01:50:56;;;;;;;24.93;19.97;;;;;;;;;;5053663;28;20210;-86
2021/06/03 01:53:23;;;;;;;25.17;20.53;;;;;;;;;;5053868;28;20183;-86
2021/06/03 01:55:48;;;;;;;26.93;20.77;;;;;;;;;;5053597;28;20175;-87
2021/06/03 01:58:14;;;;;;;27.73;22.47;;;;;;;;;;5054198;28;20676;-87
2021/06/03 02:00:40;;;;;;;26.20;20.47;;;;;;;;;;5053866;28;20164;-87
2021/06/03 02:03:05;;;;;;;29.73;20.67;;;;;;;;;;5053832;28;20267;-87
2021/06/03 02:05:31;;;;;;;27.50;21.10;;;;;;;;;;5053743;28;20581;-88
2021/06/03 02:07:56;;;;;;;27.53;20.73;;;;;;;;;;5054040;28;20172;-87
2021/06/03 02:10:22;;;;;;;27.50;20.57;;;;;;;;;;5053705;28;20198;-87
2021/06/03 02:13:10;;;;;;;24.67;19.97;;;;;;;;;;5053679;28;20233;-87
2021/06/03 02:15:37;;;;;;;28.10;20.23;;;;;;;;;;5053971;28;20488;-83
2021/06/03 02:18:04;;;;;;;25.00;19.73;;;;;;;;;;5053813;28;20176;-85
2021/06/03 02:20:30;;;;;;;27.03;19.83;;;;;;;;;;5053680;28;20172;-84
2021/06/03 02:22:56;;;;;;;26.17;20.40;;;;;;;;;;5054068;28;20180;-85
2021/06/03 02:25:23;;;;;;;28.13;21.20;;;;;;;;;;5054051;28;20168;-84
2021/06/03 02:27:48;;;;;;;27.90;21.83;;;;;;;;;;5053321;28;20167;-84
2021/06/03 02:30:16;;;;;;;28.50;20.43;;;;;;;;;;5054264;28;20516;-84
2021/06/03 02:32:42;;;;;;;26.43;20.30;;;;;;;;;;5053694;28;20200;-84
2021/06/03 02:35:10;;;;;;;27.80;21.63;;;;;;;;;;5053777;28;20172;-84
2021/06/03 02:37:38;;;;;;;27.13;21.33;;;;;;;;;;5053337;28;20571;-84
2021/06/03 02:40:05;;;;;;;29.13;21.30;;;;;;;;;;5053335;28;20191;-84
2021/06/03 02:42:30;;;;;;;27.73;20.90;;;;;;;;;;5052213;28;20565;-84
2021/06/03 02:44:56;;;;;;;24.57;20.27;;;;;;;;;;5053040;28;20168;-84
2021/06/03 02:47:21;;;;;;;26.83;20.07;;;;;;;;;;5053603;28;20315;-84
2021/06/03 02:49:46;;;;;;;26.47;20.13;;;;;;;;;;5055242;28;20203;-84
2021/06/03 02:52:12;;;;;;;24.50;19.50;;;;;;;;;;5056724;28;20290;-84
2021/06/03 02:54:37;;;;;;;25.43;19.07;;;;;;;;;;5056568;28;20168;-84
2021/06/03 02:57:03;;;;;;;27.40;19.63;;;;;;;;;;5056544;28;20203;-82
2021/06/03 02:59:28;;;;;;;28.30;20.07;;;;;;;;;;5056559;28;20665;-82
2021/06/03 03:01:53;;;;;;;26.67;19.67;;;;;;;;;;5056523;28;20179;-82
2021/06/03 03:04:19;;;;;;;24.77;18.83;;;;;;;;;;5056656;28;20168;-82
2021/06/03 03:06:44;;;;;;;25.03;19.40;;;;;;;;;;5056537;28;20253;-82
2021/06/03 03:09:09;;;;;;;25.23;19.40;;;;;;;;;;5056333;28;20168;-82
2021/06/03 03:11:35;;;;;;;26.67;19.97;;;;;;;;;;5056694;28;20254;-84
2021/06/03 03:14:00;;;;;;;26.80;19.57;;;;;;;;;;5056535;28;20230;-84
2021/06/03 03:16:26;;;;;;;29.00;18.73;;;;;;;;;;5056499;28;20179;-84
2021/06/03 03:18:51;;;;;;;24.47;18.30;;;;;;;;;;5056254;28;20175;-84
2021/06/03 03:21:17;;;;;;;23.63;18.80;;;;;;;;;;5056807;28;20183;-85
2021/06/03 03:23:42;;;;;;;22.33;17.90;;;;;;;;;;5056425;28;20168;-85
2021/06/03 03:26:08;;;;;;;22.57;18.23;;;;;;;;;;5056594;28;20234;-85
2021/06/03 03:28:33;;;;;;;23.57;18.60;;;;;;;;;;5055864;28;20615;-85
2021/06/03 03:30:58;;;;;;;21.73;18.07;;;;;;;;;;5055426;28;20294;-85
2021/06/03 03:33:24;;;;;;;24.47;18.60;;;;;;;;;;5056202;28;20190;-85
2021/06/03 03:35:50;;;;;;;25.07;18.60;;;;;;;;;;5056580;28;20183;-85
2021/06/03 03:38:16;;;;;;;25.20;18.53;;;;;;;;;;5056085;28;20164;-85
2021/06/03 03:40:42;;;;;;;21.13;17.97;;;;;;;;;;5055966;28;20547;-85
2021/06/03 03:43:07;;;;;;;21.17;16.90;;;;;;;;;;5055879;28;20176;-85
2021/06/03 03:45:34;;;;;;;23.93;18.17;;;;;;;;;;5055441;28;20180;-84
2021/06/03 03:48:01;;;;;;;23.57;17.67;;;;;;;;;;5056391;28;20255;-83
2021/06/03 03:50:26;;;;;;;23.60;17.57;;;;;;;;;;5055829;28;20258;-83
2021/06/03 03:52:51;;;;;;;22.27;18.43;;;;;;;;;;5055495;28;20286;-82
2021/06/03 03:55:17;;;;;;;20.30;17.27;;;;;;;;;;5055390;28;20586;-84
2021/06/03 03:57:43;;;;;;;22.70;18.20;;;;;;;;;;5055340;28;20260;-84
2021/06/03 04:00:10;;;;;;;22.07;17.30;;;;;;;;;;5055955;28;20176;-84
2021/06/03 04:02:35;;;;;;;23.87;17.80;;;;;;;;;;5054236;28;20279;-84
2021/06/03 04:05:01;;;;;;;18.80;16.73;;;;;;;;;;5055304;28;20172;-84
2021/06/03 04:07:27;;;;;;;20.93;15.33;;;;;;;;;;5055686;28;20630;-83
2021/06/03 04:09:52;;;;;;;20.60;16.80;;;;;;;;;;5055714;28;20251;-86
2021/06/03 04:12:17;;;;;;;20.30;17.30;;;;;;;;;;5055090;28;20647;-85
2021/06/03 04:14:43;;;;;;;18.97;16.93;;;;;;;;;;5055443;28;20269;-85
2021/06/03 04:17:08;;;;;;;20.97;17.07;;;;;;;;;;5055126;28;20174;-85
2021/06/03 04:19:33;;;;;;;22.00;16.77;;;;;;;;;;5055319;28;20174;-85
2021/06/03 04:21:59;;;;;;;21.77;16.93;;;;;;;;;;5054975;28;20179;-86
2021/06/03 04:24:25;;;;;;;23.63;18.27;;;;;;;;;;5055350;28;20602;-86
2021/06/03 04:26:51;;;;;;;20.63;18.30;;;;;;;;;;5054871;28;20180;-85
2021/06/03 04:29:16;;;;;;;21.97;18.33;;;;;;;;;;5054894;28;20170;-85
2021/06/03 04:31:41;;;;;;;21.30;17.27;;;;;;;;;;5053764;28;20674;-85
2021/06/03 04:34:07;;;;;;;21.80;17.90;;;;;;;;;;5054806;28;20172;-84
2021/06/03 04:36:33;;;;;;;23.57;18.50;;;;;;;;;;5053730;28;20172;-85
2021/06/03 04:38:59;;;;;;;21.53;18.23;;;;;;;;;;5053939;28;20222;-84
2021/06/03 04:41:24;;;;;;;20.20;18.10;;;;;;;;;;5054697;28;20199;-84
2021/06/03 04:43:49;;;;;;;19.33;17.30;;;;;;;;;;5054689;28;20168;-85
2021/06/03 04:46:15;;;;;;;22.07;17.77;;;;;;;;;;5054811;28;20519;-85
2021/06/03 04:48:40;;;;;;;20.07;17.70;;;;;;;;;;5054575;28;20224;-85
2021/06/03 04:51:05;;;;;;;21.93;16.20;;;;;;;;;;5052927;28;20286;-86
2021/06/03 04:53:31;;;;;;;20.27;17.23;;;;;;;;;;5053713;28;20172;-87
2021/06/03 04:55:57;;;;;;;17.90;16.00;;;;;;;;;;5053407;28;20259;-85
2021/06/03 04:58:22;;;;;;;18.52;16.60;;;;;;;;;;5054376;28;20164;-84
2021/06/03 05:00:47;;;;;;;19.13;16.30;;;;;;;;;;5054365;28;20168;-84
2021/06/03 05:03:14;;;;;;;17.30;15.50;;;;;;;;;;5054789;28;20729;-84
2021/06/03 05:05:40;;;;;;;12.18;11.07;;;;;;;;;;5054412;28;20172;-83
2021/06/03 05:08:06;;;;;;;10.25;9.30;;;;;;;;;;5054908;28;20516;-83
2021/06/03 05:10:31;;;;;;;10.00;9.07;;;;;;;;;;5054539;28;20174;-84
2021/06/03 05:12:57;;;;;;;12.80;9.60;;;;;;;;;;5054046;28;20199;-84
2021/06/03 05:15:22;;;;;;;10.30;9.30;;;;;;;;;;5054282;28;20230;-84
2021/06/03 05:17:50;;;;;;;9.27;8.50;;;;;;;;;;5053743;28;20254;-85
2021/06/03 05:20:16;;;;;;;9.93;8.90;;;;;;;;;;5054353;28;20258;-85
2021/06/03 05:22:42;;;;;;;10.30;9.30;;;;;;;;;;5054109;28;20255;-85
2021/06/03 05:25:10;;;;;;;9.95;8.95;;;;;;;;;;5054550;28;20214;-85
2021/06/03 05:27:36;;;;;;;10.15;9.15;;;;;;;;;;5053639;28;20274;-85
2021/06/03 05:30:02;;;;;;;9.35;8.45;;;;;;;;;;5054106;28;20211;-85
2021/06/03 05:32:27;;;;;;;11.48;9.25;;;;;;;;;;5053789;28;20658;-85
2021/06/03 05:34:52;;;;;;;10.80;9.20;;;;;;;;;;5054188;28;20172;-85
2021/06/03 05:37:19;;;;;;;10.40;9.35;;;;;;;;;;5053805;28;20170;-86
2021/06/03 05:39:44;;;;;;;10.80;9.00;;;;;;;;;;5053726;28;20309;-87
2021/06/03 05:42:09;;;;;;;9.35;8.52;;;;;;;;;;5054630;28;20195;-87
2021/06/03 05:44:35;;;;;;;9.43;8.50;;;;;;;;;;5057943;28;20590;-84
2021/06/03 05:47:00;;;;;;;9.23;8.40;;;;;;;;;;5056610;28;20227;-84
2021/06/03 05:49:27;;;;;;;8.93;8.02;;;;;;;;;;5056473;28;20507;-84
2021/06/03 05:51:53;;;;;;;9.25;8.35;;;;;;;;;;5054888;28;20549;-84
2021/06/03 05:54:18;;;;;;;10.60;8.98;;;;;;;;;;5053744;28;20171;-84
2021/06/03 05:56:44;;;;;;;10.70;9.80;;;;;;;;;;5054040;28;20176;-84
2021/06/03 05:59:09;;;;;;;10.38;9.38;;;;;;;;;;5053712;28;20259;-86
2021/06/03 06:01:36;;;;;;;10.35;8.38;;;;;;;;;;5054062;28;20611;-86
2021/06/03 06:06:26;;;;;;;8.40;7.70;;;;;;;;;;5053752;28;20226;-86
2021/06/03 06:08:53;;;;;;;9.40;8.43;;;;;;;;;;5053716;28;20164;-87
2021/06/03 06:11:19;;;;;;;8.27;7.40;;;;;;;;;;5053294;28;20203;-87
2021/06/03 06:13:44;;;;;;;9.07;8.18;;;;;;;;;;5053660;28;20164;-86
2021/06/03 06:16:10;;;;;;;7.90;7.25;;;;;;;;;;5052943;28;20184;-87
2021/06/03 06:18:35;;;;;;;8.73;8.05;;;;;;;;;;5053913;28;20226;-87
2021/06/03 06:21:01;;;;;;;8.02;7.32;;;;;;;;;;5053584;28;20167;-86
2021/06/03 06:23:26;;;;;;;8.40;7.60;;;;;;;;;;5053695;28;20558;-85
2021/06/03 06:25:52;;;;;;;8.13;7.43;;;;;;;;;;5057183;28;20255;-84
2021/06/03 06:28:17;;;;;;;8.02;7.32;;;;;;;;;;5057623;28;20256;-84
2021/06/03 06:30:43;;;;;;;8.23;7.53;;;;;;;;;;5057493;28;20182;-84
2021/06/03 06:33:08;;;;;;;8.32;7.70;;;;;;;;;;5057618;28;20199;-85
2021/06/03 06:35:34;;;;;;;8.50;7.57;;;;;;;;;;5057230;28;20168;-85
2021/06/03 06:38:00;;;;;;;8.25;7.55;;;;;;;;;;5057234;28;20167;-85
2021/06/03 06:40:26;;;;;;;7.72;7.13;;;;;;;;;;5056933;28;20221;-85
2021/06/03 06:42:54;;;;;;;7.60;6.95;;;;;;;;;;5057168;28;20199;-84
2021/06/03 06:45:29;;;;;;;7.47;6.88;;;;;;;;;;5057042;28;20206;-84
2021/06/03 06:47:55;;;;;;;7.50;6.82;;;;;;;;;;5057328;28;20269;-84
2021/06/03 06:50:21;;;;;;;7.38;6.75;;;;;;;;;;5057253;28;20195;-84
2021/06/03 06:52:46;;;;;;;7.43;6.82;;;;;;;;;;5056863;28;20174;-85
2021/06/03 06:55:12;;;;;;;6.47;5.90;;;;;;;;;;5056929;28;20178;-85
2021/06/03 06:57:38;;;;;;;7.65;6.88;;;;;;;;;;5056506;28;20171;-86
2021/06/03 07:00:05;;;;;;;7.50;6.78;;;;;;;;;;5057176;28;20651;-85
2021/06/03 07:02:30;;;;;;;7.10;6.57;;;;;;;;;;5056168;28;20593;-85
2021/06/03 07:04:56;;;;;;;6.18;5.65;;;;;;;;;;5056911;28;20167;-85
2021/06/03 07:07:21;;;;;;;6.82;6.22;;;;;;;;;;5056504;28;20174;-85
2021/06/03 07:09:46;;;;;;;8.65;6.47;;;;;;;;;;5055698;28;20171;-91
2021/06/03 07:12:12;;;;;;;6.15;5.65;;;;;;;;;;5056838;28;20171;-89
2021/06/03 07:14:38;;;;;;;6.47;5.88;;;;;;;;;;5056724;28;20167;-91
2021/06/03 07:17:03;;;;;;;6.45;6.05;;;;;;;;;;5056375;28;20178;-88
2021/06/03 07:19:29;;;;;;;6.68;5.82;;;;;;;;;;5056658;28;20175;-88
2021/06/03 07:21:55;;;;;;;5.28;4.78;;;;;;;;;;5056275;28;20199;-88
2021/06/03 07:24:20;;;;;;;5.93;5.15;;;;;;;;;;5056326;28;20632;-87
2021/06/03 07:26:46;;;;;;;6.55;5.22;;;;;;;;;;5056590;28;20254;-87
2021/06/03 07:29:11;;;;;;;6.47;5.75;;;;;;;;;;5056526;28;20175;-90
2021/06/03 07:31:37;;;;;;;6.63;6.03;;;;;;;;;;5055181;28;20175;-88
2021/06/03 07:34:03;;;;;;;7.45;5.97;;;;;;;;;;5056316;28;20167;-88
2021/06/03 07:36:29;;;;;;;6.60;5.90;;;;;;;;;;5056110;28;20172;-88
2021/06/03 07:38:54;;;;;;;6.15;5.65;;;;;;;;;;5055975;28;20176;-88
2021/06/03 07:41:19;;;;;;;6.07;5.32;;;;;;;;;;5055603;28;20207;-88
2021/06/03 07:43:45;;;;;;;6.28;5.47;;;;;;;;;;5056298;28;20249;-86
2021/06/03 07:46:12;;;;;;;6.80;5.20;;;;;;;;;;5055889;28;20218;-86
2021/06/03 07:48:37;;;;;;;5.90;4.95;;;;;;;;;;5056411;28;20235;-87
2021/06/03 07:51:04;;;;;;;7.90;5.45;;;;;;;;;;5056124;28;20164;-87
2021/06/03 07:53:31;;;;;;;5.68;5.10;;;;;;;;;;5054178;28;20211;-87
2021/06/03 07:55:56;;;;;;;5.88;5.38;;;;;;;;;;5043758;28;20218;-89
2021/06/03 07:58:21;;;;;;;5.38;4.90;;;;;;;;;;5045226;28;20168;-88
2021/06/03 08:00:47;;;;;;;5.60;5.00;;;;;;;;;;5043983;28;20542;-87
2021/06/03 08:03:13;;;;;;;5.78;5.07;;;;;;;;;;5044381;28;20548;-90
2021/06/03 08:05:39;;;;;;;5.95;4.72;;;;;;;;;;5052718;28;20180;-88
2021/06/03 08:08:04;;;;;;;6.80;4.55;;;;;;;;;;5055079;28;20168;-89
2021/06/03 08:10:33;;;;;;;5.22;4.75;;;;;;;;;;5035169;28;20188;-89
2021/06/03 08:12:58;;;;;;;5.18;4.68;;;;;;;;;;5034603;28;20164;-88
2021/06/03 08:15:25;;;;;;;4.47;4.18;;;;;;;;;;5039496;28;20643;-89
2021/06/03 08:17:50;;;;;;;5.40;4.90;;;;;;;;;;5042732;28;20259;-88
2021/06/03 08:20:21;;;;;;;5.30;4.80;;;;;;;;;;5038666;28;20608;-88
2021/06/03 08:22:47;;;;;;;6.63;5.30;;;;;;;;;;5046892;28;20227;-91
2021/06/03 08:25:13;;;;;;;5.85;4.90;;;;;;;;;;5046914;28;20180;-88
2021/06/03 08:27:40;;;;;;;5.43;4.78;;;;;;;;;;5047793;28;20230;-90
2021/06/03 08:30:07;;;;;;;6.40;4.97;;;;;;;;;;5044482;28;20719;-89
2021/06/03 08:32:32;;;;;;;5.28;4.88;;;;;;;;;;5050800;28;20182;-90
2021/06/03 08:34:58;;;;;;;6.05;5.45;;;;;;;;;;5042944;28;20266;-89
2021/06/03 08:37:24;;;;;;;6.65;4.55;;;;;;;;;;5043368;28;21042;-89
2021/06/03 08:39:49;;;;;;;4.47;4.18;;;;;;;;;;5049643;28;20212;-88
2021/06/03 08:42:16;;;;;;;4.97;4.50;;;;;;;;;;5052927;28;20621;-90
2021/06/03 08:44:42;;;;;;;4.72;4.28;;;;;;;;;;5053911;28;20171;-90
2021/06/03 08:47:09;;;;;;;5.65;5.15;;;;;;;;;;5053935;28;20223;-92
2021/06/03 08:49:36;;;;;;;5.72;5.13;;;;;;;;;;5054246;28;20180;-91
2021/06/03 08:52:03;;;;;;;6.30;5.70;;;;;;;;;;5053326;28;20697;-91
2021/06/03 08:54:32;;;;;;;7.15;5.47;;;;;;;;;;5054496;28;20196;-91
2021/06/03 08:56:58;;;;;;;5.35;4.85;;;;;;;;;;5054411;28;20512;-91
2021/06/03 08:59:23;;;;;;;5.10;4.50;;;;;;;;;;5054155;28;20179;-89
2021/06/03 09:01:49;;;;;;;5.47;4.75;;;;;;;;;;5053109;28;20203;-91
2021/06/03 09:04:16;;;;;;;5.28;4.20;;;;;;;;;;5054080;28;20574;-91
2021/06/03 09:06:41;;;;;;;4.82;4.20;;;;;;;;;;5054191;28;20199;-89
2021/06/03 09:09:11;;;;;;;4.80;3.97;;;;;;;;;;5052070;28;20249;-90
2021/06/03 09:11:36;;;;;;;6.05;4.45;;;;;;;;;;5050167;28;20184;-89
2021/06/03 09:14:03;;;;;;;4.13;3.83;;;;;;;;;;5052127;28;20167;-88
2021/06/03 09:16:31;;;;;;;4.60;4.20;;;;;;;;;;5051792;28;20176;-88
2021/06/03 09:18:58;;;;;;;3.83;3.53;;;;;;;;;;5053342;28;20164;-89
2021/06/03 09:21:23;;;;;;;4.32;3.90;;;;;;;;;;5053995;28;20290;-88
2021/06/03 09:23:55;;;;;;;4.30;4.00;;;;;;;;;;5051797;28;20229;-89
2021/06/03 09:26:20;;;;;;;4.40;4.00;;;;;;;;;;5050932;28;20190;-87
2021/06/03 09:28:49;;;;;;;4.03;3.72;;;;;;;;;;5054198;28;20251;-87
2021/06/03 09:31:17;;;;;;;6.32;4.20;;;;;;;;;;5052779;28;20631;-88
2021/06/03 09:33:50;;;;;;;4.47;3.85;;;;;;;;;;5041748;28;20176;-88
2021/06/03 09:36:17;;;;;;;5.32;3.60;;;;;;;;;;5044055;28;20172;-90
2021/06/03 09:38:54;;;;;;;5.30;3.70;;;;;;;;;;5052648;28;20176;-90
2021/06/03 09:41:20;;;;;;;4.80;3.90;;;;;;;;;;5053570;28;20210;-90
2021/06/03 09:43:45;;;;;;;4.00;3.70;;;;;;;;;;5053994;28;20259;-91
2021/06/03 09:46:16;;;;;;;4.07;3.65;;;;;;;;;;5053558;28;20171;-90
2021/06/03 09:48:42;;;;;;;4.13;3.60;;;;;;;;;;5053519;28;20215;-86
2021/06/03 09:51:30;;;;;;;4.43;3.90;;;;;;;;;;5053545;28;20171;-87
2021/06/03 09:54:09;;;;;;;3.78;3.45;;;;;;;;;;5054075;28;20177;-87
2021/06/03 09:56:36;;;;;;;5.60;3.60;;;;;;;;;;5052431;28;20199;-88
2021/06/03 09:59:03;;;;;;;4.38;3.97;;;;;;;;;;5055487;28;20159;-87
2021/06/03 10:01:42;;;;;;;4.78;3.55;;;;;;;;;;5063275;28;20207;-87
2021/06/03 10:04:08;;;;;;;4.07;3.60;;;;;;;;;;5068528;28;20151;-87
2021/06/03 10:06:33;;;;;;;4.18;3.80;;;;;;;;;;5069573;28;20200;-88
2021/06/03 10:08:59;;;;;;;6.13;3.90;;;;;;;;;;5085033;28;20178;-87
2021/06/03 10:11:43;;;;;;;4.47;4.07;;;;;;;;;;5068570;28;20183;-87
2021/06/03 10:14:09;;;;;;;4.32;3.85;;;;;;;;;;5067375;28;20636;-87
2021/06/03 10:16:34;;;;;;;3.78;3.50;;;;;;;;;;5064998;28;20167;-87
2021/06/03 10:19:17;;;;;;;4.72;4.18;;;;;;;;;;5055711;28;20313;-88
2021/06/03 10:21:43;;;;;;;4.20;3.78;;;;;;;;;;5055912;28;20290;-88
2021/06/03 10:24:08;;;;;;;5.57;3.72;;;;;;;;;;5055507;28;20255;-87
2021/06/03 10:26:52;;;;;;;5.15;3.78;;;;;;;;;;5055577;28;20180;-86
2021/06/03 10:29:17;;;;;;;4.25;3.90;;;;;;;;;;5049336;28;20199;-86
2021/06/03 10:31:43;;;;;;;6.43;4.43;;;;;;;;;;5056346;28;20682;-86
2021/06/03 10:34:09;;;;;;;9.63;5.90;;;;;;;;;;5056991;28;20179;-86
2021/06/03 10:36:35;;;;;;;5.30;4.70;;;;;;;;;;5056910;28;20171;-85
2021/06/03 10:39:00;;;;;;;6.32;5.13;;;;;;;;;;5057251;28;20172;-86
2021/06/03 10:41:26;;;;;;;4.30;3.95;;;;;;;;;;5056405;28;20346;-86
2021/06/03 10:43:53;;;;;;;4.40;4.10;;;;;;;;;;5056547;28;20176;-86
2021/06/03 10:46:18;;;;;;;7.88;4.38;;;;;;;;;;5055778;28;20634;-87
2021/06/03 10:48:43;;;;;;;6.60;4.43;;;;;;;;;;5056702;28;20179;-87
2021/06/03 10:51:10;;;;;;;4.85;4.47;;;;;;;;;;5055600;28;20175;-86
2021/06/03 10:53:44;;;;;;;5.03;4.55;;;;;;;;;;5055480;28;20191;-86
2021/06/03 10:56:10;;;;;;;5.18;4.60;;;;;;;;;;5056313;28;20658;-86
2021/06/03 10:58:37;;;;;;;4.45;4.07;;;;;;;;;;5055516;28;20202;-87
2021/06/03 11:01:04;;;;;;;4.60;4.00;;;;;;;;;;5056239;28;20175;-87
2021/06/03 11:04:01;;;;;;;4.90;4.32;;;;;;;;;;5056777;28;20203;-86
2021/06/03 11:06:28;;;;;;;4.85;4.35;;;;;;;;;;5056267;28;20222;-86
2021/06/03 11:08:56;;;;;;;7.63;4.47;;;;;;;;;;5055881;28;20254;-86
2021/06/03 11:11:27;;;;;;;4.07;3.78;;;;;;;;;;5054990;28;20176;-86
2021/06/03 11:13:52;;;;;;;4.20;3.90;;;;;;;;;;5055780;28;20263;-86
2021/06/03 11:16:21;;;;;;;4.20;3.90;;;;;;;;;;5055826;28;20199;-86
2021/06/03 11:18:49;;;;;;;5.75;4.15;;;;;;;;;;5055347;28;20168;-87
2021/06/03 11:21:33;;;;;;;4.45;4.05;;;;;;;;;;5055381;28;20170;-87
2021/06/03 11:24:30;;;;;;;5.25;4.22;;;;;;;;;;5055945;28;20178;-87
2021/06/03 11:26:56;;;;;;;4.63;4.15;;;;;;;;;;5053280;28;20223;-88
2021/06/03 11:29:22;;;;;;;4.20;3.90;;;;;;;;;;5055223;28;20637;-86
2021/06/03 11:31:49;;;;;;;4.53;4.13;;;;;;;;;;5055281;28;20171;-87
2021/06/03 11:34:22;;;;;;;5.07;3.83;;;;;;;;;;5055864;28;20179;-89
2021/06/03 11:36:58;;;;;;;4.25;3.88;;;;;;;;;;5053864;28;20164;-88
2021/06/03 11:39:32;;;;;;;4.22;3.72;;;;;;;;;;5055191;28;20214;-87
2021/06/03 11:42:16;;;;;;;4.25;3.78;;;;;;;;;;5053422;28;20202;-86
2021/06/03 11:45:03;;;;;;;5.03;3.85;;;;;;;;;;5050699;28;20175;-87
2021/06/03 11:47:48;;;;;;;4.70;4.30;;;;;;;;;;5051388;28;20235;-87
2021/06/03 11:50:17;;;;;;;4.32;4.03;;;;;;;;;;5053657;28;20176;-87
2021/06/03 11:55:26;;;;;;;4.30;3.95;;;;;;;;;;5055097;28;20180;-86
2021/06/03 11:58:08;;;;;;;5.03;4.00;;;;;;;;;;5054991;28;20288;-87
2021/06/03 12:00:37;;;;;;;4.68;3.88;;;;;;;;;;5053696;28;20526;-86
2021/06/03 12:03:22;;;;;;;4.07;3.78;;;;;;;;;;5055585;28;20538;-86
2021/06/03 12:05:47;;;;;;;4.60;4.25;;;;;;;;;;5053676;28;20175;-87
2021/06/03 12:08:30;;;;;;;4.35;3.95;;;;;;;;;;5055229;28;20633;-87
2021/06/03 12:10:55;;;;;;;4.68;4.10;;;;;;;;;;5055322;28;20167;-87
2021/06/03 12:13:20;;;;;;;6.70;4.35;;;;;;;;;;5055249;28;20168;-87
2021/06/03 12:15:46;;;;;;;6.38;4.40;;;;;;;;;;5054862;28;20172;-86
2021/06/03 12:18:12;;;;;;;5.82;4.25;;;;;;;;;;5052037;28;20205;-87
2021/06/03 12:20:37;;;;;;;4.40;3.78;;;;;;;;;;5054533;28;20168;-88
2021/06/03 12:23:07;;;;;;;7.45;4.03;;;;;;;;;;5052751;28;20239;-87
2021/06/03 12:25:39;;;;;;;4.30;3.90;;;;;;;;;;5053822;28;20163;-87
2021/06/03 12:28:05;;;;;;;4.97;4.00;;;;;;;;;;5053046;28;20194;-88
2021/06/03 12:30:33;;;;;;;4.53;4.13;;;;;;;;;;5041465;28;20239;-88
2021/06/03 12:33:06;;;;;;;5.15;4.03;;;;;;;;;;5051899;28;20259;-87
2021/06/03 12:35:36;;;;;;;4.32;4.00;;;;;;;;;;5052608;28;20172;-87
2021/06/03 12:38:02;;;;;;;4.25;3.90;;;;;;;;;;5046227;28;20626;-87
2021/06/03 12:40:28;;;;;;;4.63;4.20;;;;;;;;;;5043661;28;20581;-86
2021/06/03 12:43:04;;;;;;;4.93;3.78;;;;;;;;;;5046469;28;20266;-87
2021/06/03 12:45:33;;;;;;;5.07;3.90;;;;;;;;;;5053075;28;20293;-87
2021/06/03 12:47:59;;;;;;;4.45;4.03;;;;;;;;;;5054489;28;20670;-87
2021/06/03 12:50:24;;;;;;;4.63;3.90;;;;;;;;;;5054376;28;20175;-86
2021/06/03 12:52:50;;;;;;;5.07;4.25;;;;;;;;;;5053774;28;20635;-87
2021/06/03 12:55:16;;;;;;;4.68;4.32;;;;;;;;;;5053973;28;20648;-88
2021/06/03 12:57:42;;;;;;;6.68;4.60;;;;;;;;;;5054231;28;20557;-87
2021/06/03 13:00:16;;;;;;;4.63;4.22;;;;;;;;;;5054594;28;20166;-87
2021/06/03 13:02:42;;;;;;;5.05;4.05;;;;;;;;;;5054017;28;20653;-88
2021/06/03 13:05:11;;;;;;;6.82;4.40;;;;;;;;;;5054386;28;20175;-88
2021/06/03 13:07:37;;;;;;;4.55;4.00;;;;;;;;;;5054548;28;20172;-87
2021/06/03 13:10:05;;;;;;;4.85;4.35;;;;;;;;;;5053759;28;20163;-88
2021/06/03 13:12:30;;;;;;;4.38;4.00;;;;;;;;;;5054856;28;20576;-88
2021/06/03 13:14:57;;;;;;;4.43;4.03;;;;;;;;;;5053963;28;20195;-87
2021/06/03 13:17:35;;;;;;;4.22;3.92;;;;;;;;;;5054375;28;20585;-87
2021/06/03 13:20:09;;;;;;;4.30;4.00;;;;;;;;;;5055292;28;20148;-87
2021/06/03 13:22:35;;;;;;;5.57;4.05;;;;;;;;;;5055004;28;20188;-88
2021/06/03 13:25:05;;;;;;;4.68;4.00;;;;;;;;;;5049614;28;20176;-87
2021/06/03 13:27:32;;;;;;;5.82;3.88;;;;;;;;;;5045449;28;20171;-87
2021/06/03 13:29:59;;;;;;;4.07;3.78;;;;;;;;;;5044668;28;20218;-87
2021/06/03 13:32:25;;;;;;;4.22;3.90;;;;;;;;;;5043381;28;20171;-87
2021/06/03 13:34:58;;;;;;;4.00;3.70;;;;;;;;;;5040197;28;20168;-87
2021/06/03 13:37:31;;;;;;;4.55;3.70;;;;;;;;;;5033870;28;20161;-87
2021/06/03 13:40:00;;;;;;;5.75;5.28;;;;;;;;;;5034280;28;20322;-87
2021/06/03 13:42:32;;;;;;;6.85;5.30;;;;;;;;;;5034346;28;20729;-87
2021/06/03 13:44:59;;;;;;;6.10;4.00;;;;;;;;;;5033693;28;20172;-88
2021/06/03 13:47:34;;;;;;;4.38;4.03;;;;;;;;;;5036246;28;20247;-87
2021/06/03 13:50:13;;;;;;;5.00;4.07;;;;;;;;;;5050501;28;20258;-88
2021/06/03 13:52:42;;;;;;;6.00;4.30;;;;;;;;;;5054526;28;20179;-88
2021/06/03 13:55:18;;;;;;;6.65;4.20;;;;;;;;;;5055153;28;20175;-89
2021/06/03 13:57:44;;;;;;;4.80;4.40;;;;;;;;;;5052989;28;20207;-88
2021/06/03 14:00:11;;;;;;;4.18;3.78;;;;;;;;;;5054819;28;20261;-89
2021/06/03 14:02:37;;;;;;;4.97;4.10;;;;;;;;;;5053171;28;20654;-89
2021/06/03 14:05:12;;;;;;;5.28;4.78;;;;;;;;;;5054632;28;20254;-88
2021/06/03 14:07:38;;;;;;;5.18;4.68;;;;;;;;;;5054323;28;20179;-88
2021/06/03 14:10:10;;;;;;;4.35;3.95;;;;;;;;;;5054676;28;20160;-88
2021/06/03 14:12:45;;;;;;;4.65;3.90;;;;;;;;;;5054593;28;20168;-87
2021/06/03 14:15:14;;;;;;;6.50;5.90;;;;;;;;;;5054647;28;20151;-88
2021/06/03 14:17:39;;;;;;;4.32;3.92;;;;;;;;;;5054219;28;20164;-86
2021/06/03 14:20:08;;;;;;;5.28;4.35;;;;;;;;;;5054247;28;20172;-87
2021/06/03 14:22:37;;;;;;;5.57;4.90;;;;;;;;;;5054401;28;20214;-87
2021/06/03 14:25:14;;;;;;;5.63;5.13;;;;;;;;;;5054109;28;20231;-88
2021/06/03 14:27:41;;;;;;;5.57;4.43;;;;;;;;;;5049503;28;20192;-89
2021/06/03 14:30:07;;;;;;;8.57;5.45;;;;;;;;;;5054192;28;20172;-87
2021/06/03 14:32:33;;;;;;;4.70;4.30;;;;;;;;;;5048568;28;20173;-88
2021/06/03 14:35:10;;;;;;;4.78;4.18;;;;;;;;;;5043563;28;20591;-87
2021/06/03 14:37:35;;;;;;;5.18;4.35;;;;;;;;;;5054523;28;20207;-88
2021/06/03 14:40:01;;;;;;;6.25;4.65;;;;;;;;;;5054118;28;20188;-88